sensor_id;sensor_type;location;lat;lon;timestamp;temperature;humidity
20827;DHT22;10574;52.508;13.236;2023-06-26T00:02:21;19.70;99.90
20827;DHT22;10574;52.508;13.236;2023-06-26T00:04:49;19.70;99.90
20827;DHT22;10574;52.508;13.236;2023-06-26T00:07:18;19.70;99.90
20827;DHT22;10574;52.508;13.236;2023-06-26T00:09:46;19.70;99.90
20827;DHT22;10574;52.508;13.236;2023-06-26T00:12:14;19.60;99.90
20827;DHT22;10574;52.508;13.236;2023-06-26T00:14:42;19.60;99.90
20827;DHT22;10574;52.508;13.236;2023-06-26T00:17:09;19.60;99.90
20827;DHT22;10574;52.508;13.236;2023-06-26T00:19:38;19.60;99.90
20827;DHT22;10574;52.508;13.236;2023-06-26T00:22:06;19.60;99.90
20827;DHT22;10574;52.508;13.236;2023-06-26T00:24:34;19.50;99.90
20827;DHT22;10574;52.508;13.236;2023-06-26T00:27:01;19.50;99.90
20827;DHT22;10574;52.508;13.236;2023-06-26T00:29:29;19.50;99.90
20827;DHT22;10574;52.508;13.236;2023-06-26T00:31:57;19.40;99.90
20827;DHT22;10574;52.508;13.236;2023-06-26T00:34:24;19.40;99.90
20827;DHT22;10574;52.508;13.236;2023-06-26T00:36:52;19.40;99.90
20827;DHT22;10574;52.508;13.236;2023-06-26T00:39:20;19.40;99.90
20827;DHT22;10574;52.508;13.236;2023-06-26T00:41:47;19.30;99.90
20827;DHT22;10574;52.508;13.236;2023-06-26T00:44:15;19.30;99.90
20827;DHT22;10574;52.508;13.236;2023-06-26T00:46:43;19.20;99.90
20827;DHT22;10574;52.508;13.236;2023-06-26T00:49:11;19.20;99.90
20827;DHT22;10574;52.508;13.236;2023-06-26T00:51:39;19.30;99.90
20827;DHT22;10574;52.508;13.236;2023-06-26T00:54:07;19.30;99.90
20827;DHT22;10574;52.508;13.236;2023-06-26T00:56:35;19.20;99.90
20827;DHT22;10574;52.508;13.236;2023-06-26T00:59:03;19.20;99.90
20827;DHT22;10574;52.508;13.236;2023-06-26T01:01:31;19.20;99.90
20827;DHT22;10574;52.508;13.236;2023-06-26T01:03:59;19.20;99.90
20827;DHT22;10574;52.508;13.236;2023-06-26T01:06:28;19.30;99.90
20827;DHT22;10574;52.508;13.236;2023-06-26T01:08:58;19.30;99.90
20827;DHT22;10574;52.508;13.236;2023-06-26T01:11:26;19.30;99.90
20827;DHT22;10574;52.508;13.236;2023-06-26T01:13:54;19.30;99.90
20827;DHT22;10574;52.508;13.236;2023-06-26T01:16:27;19.30;99.90
20827;DHT22;10574;52.508;13.236;2023-06-26T01:18:57;19.40;99.90
20827;DHT22;10574;52.508;13.236;2023-06-26T01:21:25;19.40;99.90
20827;DHT22;10574;52.508;13.236;2023-06-26T01:24:17;19.40;99.90
20827;DHT22;10574;52.508;13.236;2023-06-26T01:26:49;19.50;99.90
20827;DHT22;10574;52.508;13.236;2023-06-26T01:29:19;19.50;99.90
20827;DHT22;10574;52.508;13.236;2023-06-26T01:31:49;19.50;99.90
20827;DHT22;10574;52.508;13.236;2023-06-26T01:34:18;19.50;99.90
20827;DHT22;10574;52.508;13.236;2023-06-26T01:36:45;19.50;99.90
20827;DHT22;10574;52.508;13.236;2023-06-26T01:39:15;19.50;99.90
20827;DHT22;10574;52.508;13.236;2023-06-26T01:41:44;19.60;99.90
20827;DHT22;10574;52.508;13.236;2023-06-26T01:44:23;19.60;99.90
20827;DHT22;10574;52.508;13.236;2023-06-26T01:57:41;19.60;99.90
20827;DHT22;10574;52.508;13.236;2023-06-26T02:00:11;19.50;99.90
20827;DHT22;10574;52.508;13.236;2023-06-26T02:02:41;19.50;99.90
20827;DHT22;10574;52.508;13.236;2023-06-26T02:05:09;19.50;99.90
20827;DHT22;10574;52.508;13.236;2023-06-26T02:07:37;19.50;99.90
20827;DHT22;10574;52.508;13.236;2023-06-26T02:10:05;19.50;99.90
20827;DHT22;10574;52.508;13.236;2023-06-26T02:12:35;19.50;99.90
20827;DHT22;10574;52.508;13.236;2023-06-26T02:15:04;19.50;99.90
20827;DHT22;10574;52.508;13.236;2023-06-26T02:17:31;19.50;99.90
20827;DHT22;10574;52.508;13.236;2023-06-26T02:19:59;19.50;99.90
20827;DHT22;10574;52.508;13.236;2023-06-26T02:22:27;19.50;99.90
20827;DHT22;10574;52.508;13.236;2023-06-26T02:24:55;19.40;99.90
20827;DHT22;10574;52.508;13.236;2023-06-26T02:27:23;19.40;99.90
20827;DHT22;10574;52.508;13.236;2023-06-26T02:29:50;19.40;99.90
20827;DHT22;10574;52.508;13.236;2023-06-26T02:32:18;19.30;99.90
20827;DHT22;10574;52.508;13.236;2023-06-26T02:34:46;19.30;99.90
20827;DHT22;10574;52.508;13.236;2023-06-26T02:37:13;19.20;99.90
20827;DHT22;10574;52.508;13.236;2023-06-26T02:39:42;19.10;99.90
20827;DHT22;10574;52.508;13.236;2023-06-26T02:42:10;19.00;99.90
20827;DHT22;10574;52.508;13.236;2023-06-26T02:44:39;19.00;99.90
20827;DHT22;10574;52.508;13.236;2023-06-26T02:47:06;18.90;99.90
20827;DHT22;10574;52.508;13.236;2023-06-26T02:49:34;18.80;99.90
20827;DHT22;10574;52.508;13.236;2023-06-26T02:52:03;18.70;99.90
20827;DHT22;10574;52.508;13.236;2023-06-26T02:54:30;18.60;99.90
20827;DHT22;10574;52.508;13.236;2023-06-26T02:56:59;18.60;99.90
20827;DHT22;10574;52.508;13.236;2023-06-26T02:59:27;18.60;99.90
20827;DHT22;10574;52.508;13.236;2023-06-26T03:01:54;18.60;99.90
20827;DHT22;10574;52.508;13.236;2023-06-26T03:04:22;18.60;99.90
20827;DHT22;10574;52.508;13.236;2023-06-26T03:06:50;18.60;99.90
20827;DHT22;10574;52.508;13.236;2023-06-26T03:09:17;18.70;99.90
20827;DHT22;10574;52.508;13.236;2023-06-26T03:11:45;18.70;99.90
20827;DHT22;10574;52.508;13.236;2023-06-26T03:14:13;18.70;99.90
20827;DHT22;10574;52.508;13.236;2023-06-26T03:16:40;18.80;99.90
20827;DHT22;10574;52.508;13.236;2023-06-26T03:19:08;18.80;99.90
20827;DHT22;10574;52.508;13.236;2023-06-26T03:21:36;18.80;99.90
20827;DHT22;10574;52.508;13.236;2023-06-26T03:24:04;18.80;99.90
20827;DHT22;10574;52.508;13.236;2023-06-26T03:26:32;18.80;99.90
20827;DHT22;10574;52.508;13.236;2023-06-26T03:28:59;18.90;99.90
20827;DHT22;10574;52.508;13.236;2023-06-26T03:31:27;18.90;99.90
20827;DHT22;10574;52.508;13.236;2023-06-26T03:33:55;19.00;99.90
20827;DHT22;10574;52.508;13.236;2023-06-26T03:36:23;19.10;99.90
20827;DHT22;10574;52.508;13.236;2023-06-26T03:38:50;19.20;99.90
20827;DHT22;10574;52.508;13.236;2023-06-26T03:41:20;19.20;99.90
20827;DHT22;10574;52.508;13.236;2023-06-26T03:43:47;19.30;99.90
20827;DHT22;10574;52.508;13.236;2023-06-26T03:46:15;19.30;99.90
20827;DHT22;10574;52.508;13.236;2023-06-26T03:48:43;19.30;99.90
20827;DHT22;10574;52.508;13.236;2023-06-26T03:51:10;19.30;99.90
20827;DHT22;10574;52.508;13.236;2023-06-26T03:53:38;19.30;99.90
20827;DHT22;10574;52.508;13.236;2023-06-26T03:56:06;19.30;99.90
20827;DHT22;10574;52.508;13.236;2023-06-26T03:58:33;19.40;99.90
20827;DHT22;10574;52.508;13.236;2023-06-26T04:01:01;19.50;99.90
20827;DHT22;10574;52.508;13.236;2023-06-26T04:03:29;19.50;99.90
20827;DHT22;10574;52.508;13.236;2023-06-26T04:05:57;19.50;99.90
20827;DHT22;10574;52.508;13.236;2023-06-26T04:08:25;19.60;99.90
20827;DHT22;10574;52.508;13.236;2023-06-26T04:10:53;19.60;99.90
20827;DHT22;10574;52.508;13.236;2023-06-26T04:13:22;19.60;99.90
20827;DHT22;10574;52.508;13.236;2023-06-26T04:15:51;19.60;99.90
20827;DHT22;10574;52.508;13.236;2023-06-26T04:18:19;19.70;99.90
20827;DHT22;10574;52.508;13.236;2023-06-26T04:21:11;19.70;99.90
20827;DHT22;10574;52.508;13.236;2023-06-26T04:23:36;19.60;99.90
20827;DHT22;10574;52.508;13.236;2023-06-26T04:26:04;19.60;99.90
20827;DHT22;10574;52.508;13.236;2023-06-26T04:28:34;19.60;99.90
20827;DHT22;10574;52.508;13.236;2023-06-26T04:31:03;19.60;99.90
20827;DHT22;10574;52.508;13.236;2023-06-26T04:33:30;19.60;99.90
20827;DHT22;10574;52.508;13.236;2023-06-26T04:36:00;19.60;99.90
20827;DHT22;10574;52.508;13.236;2023-06-26T04:38:33;19.50;99.90
20827;DHT22;10574;52.508;13.236;2023-06-26T04:41:02;19.60;99.90
20827;DHT22;10574;52.508;13.236;2023-06-26T04:43:29;19.60;99.90
20827;DHT22;10574;52.508;13.236;2023-06-26T04:45:57;19.60;99.90
20827;DHT22;10574;52.508;13.236;2023-06-26T04:48:26;19.60;99.90
20827;DHT22;10574;52.508;13.236;2023-06-26T04:50:57;19.70;99.90
20827;DHT22;10574;52.508;13.236;2023-06-26T04:53:25;19.90;99.90
20827;DHT22;10574;52.508;13.236;2023-06-26T04:55:53;20.40;99.90
20827;DHT22;10574;52.508;13.236;2023-06-26T04:58:21;20.70;99.90
20827;DHT22;10574;52.508;13.236;2023-06-26T05:00:49;21.00;99.90
20827;DHT22;10574;52.508;13.236;2023-06-26T05:03:17;21.20;99.90
20827;DHT22;10574;52.508;13.236;2023-06-26T05:05:46;21.30;99.90
20827;DHT22;10574;52.508;13.236;2023-06-26T05:08:20;21.40;99.90
20827;DHT22;10574;52.508;13.236;2023-06-26T05:10:50;21.40;99.90
20827;DHT22;10574;52.508;13.236;2023-06-26T05:13:20;21.40;99.90
20827;DHT22;10574;52.508;13.236;2023-06-26T05:15:48;21.30;99.90
20827;DHT22;10574;52.508;13.236;2023-06-26T05:18:16;21.40;99.90
20827;DHT22;10574;52.508;13.236;2023-06-26T05:20:44;21.40;99.90
20827;DHT22;10574;52.508;13.236;2023-06-26T05:23:12;21.40;99.90
20827;DHT22;10574;52.508;13.236;2023-06-26T05:25:41;21.30;99.90
20827;DHT22;10574;52.508;13.236;2023-06-26T05:28:09;21.10;99.90
20827;DHT22;10574;52.508;13.236;2023-06-26T05:30:39;21.10;99.90
20827;DHT22;10574;52.508;13.236;2023-06-26T05:33:06;21.10;99.90
20827;DHT22;10574;52.508;13.236;2023-06-26T05:35:36;21.30;99.90
20827;DHT22;10574;52.508;13.236;2023-06-26T05:38:05;21.50;99.90
20827;DHT22;10574;52.508;13.236;2023-06-26T05:40:34;21.90;99.90
20827;DHT22;10574;52.508;13.236;2023-06-26T05:43:02;22.20;99.90
20827;DHT22;10574;52.508;13.236;2023-06-26T05:45:30;22.60;99.90
20827;DHT22;10574;52.508;13.236;2023-06-26T05:47:58;23.00;99.90
20827;DHT22;10574;52.508;13.236;2023-06-26T05:50:27;23.40;99.90
20827;DHT22;10574;52.508;13.236;2023-06-26T05:52:56;23.60;99.90
20827;DHT22;10574;52.508;13.236;2023-06-26T05:55:24;23.80;99.90
20827;DHT22;10574;52.508;13.236;2023-06-26T05:57:52;23.80;99.90
20827;DHT22;10574;52.508;13.236;2023-06-26T06:00:21;23.80;99.90
20827;DHT22;10574;52.508;13.236;2023-06-26T06:02:49;23.80;99.90
20827;DHT22;10574;52.508;13.236;2023-06-26T06:05:18;23.90;99.90
20827;DHT22;10574;52.508;13.236;2023-06-26T06:07:46;24.00;99.90
20827;DHT22;10574;52.508;13.236;2023-06-26T06:10:14;24.20;99.90
20827;DHT22;10574;52.508;13.236;2023-06-26T06:12:41;24.70;99.90
20827;DHT22;10574;52.508;13.236;2023-06-26T06:15:09;25.10;99.90
20827;DHT22;10574;52.508;13.236;2023-06-26T06:17:37;25.50;99.90
20827;DHT22;10574;52.508;13.236;2023-06-26T06:20:05;25.70;99.90
20827;DHT22;10574;52.508;13.236;2023-06-26T06:22:33;25.50;99.90
20827;DHT22;10574;52.508;13.236;2023-06-26T06:25:00;25.40;99.90
20827;DHT22;10574;52.508;13.236;2023-06-26T06:27:28;25.10;99.90
20827;DHT22;10574;52.508;13.236;2023-06-26T06:29:55;25.00;99.90
20827;DHT22;10574;52.508;13.236;2023-06-26T06:32:23;25.10;99.90
20827;DHT22;10574;52.508;13.236;2023-06-26T06:34:51;25.20;99.90
20827;DHT22;10574;52.508;13.236;2023-06-26T06:37:18;25.50;99.90
20827;DHT22;10574;52.508;13.236;2023-06-26T06:39:46;25.80;99.90
20827;DHT22;10574;52.508;13.236;2023-06-26T06:42:14;25.80;99.90
20827;DHT22;10574;52.508;13.236;2023-06-26T06:44:41;25.70;99.90
20827;DHT22;10574;52.508;13.236;2023-06-26T06:47:09;25.80;99.90
20827;DHT22;10574;52.508;13.236;2023-06-26T06:49:37;25.80;99.90
20827;DHT22;10574;52.508;13.236;2023-06-26T06:52:05;26.10;99.90
20827;DHT22;10574;52.508;13.236;2023-06-26T06:54:50;26.10;99.90
20827;DHT22;10574;52.508;13.236;2023-06-26T06:57:04;26.30;99.90
20827;DHT22;10574;52.508;13.236;2023-06-26T06:59:31;26.40;99.90
20827;DHT22;10574;52.508;13.236;2023-06-26T07:01:59;26.60;99.90
20827;DHT22;10574;52.508;13.236;2023-06-26T07:04:27;26.80;99.90
20827;DHT22;10574;52.508;13.236;2023-06-26T07:06:54;27.00;99.90
20827;DHT22;10574;52.508;13.236;2023-06-26T07:09:22;26.90;99.90
20827;DHT22;10574;52.508;13.236;2023-06-26T07:11:50;27.10;99.90
20827;DHT22;10574;52.508;13.236;2023-06-26T07:14:17;27.20;99.90
20827;DHT22;10574;52.508;13.236;2023-06-26T07:16:45;26.90;99.90
20827;DHT22;10574;52.508;13.236;2023-06-26T07:19:12;26.90;99.90
20827;DHT22;10574;52.508;13.236;2023-06-26T07:21:40;27.20;99.90
20827;DHT22;10574;52.508;13.236;2023-06-26T07:24:09;27.60;99.90
20827;DHT22;10574;52.508;13.236;2023-06-26T07:26:37;27.60;99.90
20827;DHT22;10574;52.508;13.236;2023-06-26T07:29:05;27.70;99.90
20827;DHT22;10574;52.508;13.236;2023-06-26T07:31:34;27.80;99.90
20827;DHT22;10574;52.508;13.236;2023-06-26T07:34:01;28.20;99.90
20827;DHT22;10574;52.508;13.236;2023-06-26T07:36:29;28.30;99.90
20827;DHT22;10574;52.508;13.236;2023-06-26T07:38:57;28.50;99.90
20827;DHT22;10574;52.508;13.236;2023-06-26T07:41:24;28.40;99.90
20827;DHT22;10574;52.508;13.236;2023-06-26T07:43:52;28.10;99.90
20827;DHT22;10574;52.508;13.236;2023-06-26T07:46:20;28.20;99.90
20827;DHT22;10574;52.508;13.236;2023-06-26T07:48:47;28.20;99.90
20827;DHT22;10574;52.508;13.236;2023-06-26T07:51:15;28.40;99.90
20827;DHT22;10574;52.508;13.236;2023-06-26T07:53:44;28.30;99.90
20827;DHT22;10574;52.508;13.236;2023-06-26T07:56:12;28.60;99.90
20827;DHT22;10574;52.508;13.236;2023-06-26T07:58:40;28.50;99.90
20827;DHT22;10574;52.508;13.236;2023-06-26T08:01:07;28.60;99.90
20827;DHT22;10574;52.508;13.236;2023-06-26T08:03:35;28.50;99.90
20827;DHT22;10574;52.508;13.236;2023-06-26T08:06:03;28.70;99.90
20827;DHT22;10574;52.508;13.236;2023-06-26T08:08:31;28.80;99.90
20827;DHT22;10574;52.508;13.236;2023-06-26T08:10:58;28.80;99.90
20827;DHT22;10574;52.508;13.236;2023-06-26T08:13:26;29.00;99.90
20827;DHT22;10574;52.508;13.236;2023-06-26T08:15:54;29.20;99.90
20827;DHT22;10574;52.508;13.236;2023-06-26T08:18:21;29.20;99.90
20827;DHT22;10574;52.508;13.236;2023-06-26T08:20:49;29.30;99.90
20827;DHT22;10574;52.508;13.236;2023-06-26T08:23:18;28.90;99.90
20827;DHT22;10574;52.508;13.236;2023-06-26T08:25:46;28.80;99.90
20827;DHT22;10574;52.508;13.236;2023-06-26T08:28:13;29.00;99.90
20827;DHT22;10574;52.508;13.236;2023-06-26T08:30:41;28.90;99.90
20827;DHT22;10574;52.508;13.236;2023-06-26T08:33:08;29.00;99.90
20827;DHT22;10574;52.508;13.236;2023-06-26T08:35:38;28.90;99.90
20827;DHT22;10574;52.508;13.236;2023-06-26T08:38:06;29.00;99.90
20827;DHT22;10574;52.508;13.236;2023-06-26T08:40:35;28.80;99.90
20827;DHT22;10574;52.508;13.236;2023-06-26T08:43:03;29.00;99.90
20827;DHT22;10574;52.508;13.236;2023-06-26T08:45:32;29.30;99.90
20827;DHT22;10574;52.508;13.236;2023-06-26T08:48:00;29.40;99.90
20827;DHT22;10574;52.508;13.236;2023-06-26T08:50:31;29.70;99.90
20827;DHT22;10574;52.508;13.236;2023-06-26T08:53:34;29.70;99.90
20827;DHT22;10574;52.508;13.236;2023-06-26T08:56:02;29.70;99.90
20827;DHT22;10574;52.508;13.236;2023-06-26T08:58:31;29.80;99.90
20827;DHT22;10574;52.508;13.236;2023-06-26T09:00:59;29.70;99.90
20827;DHT22;10574;52.508;13.236;2023-06-26T09:03:28;29.60;98.20
20827;DHT22;10574;52.508;13.236;2023-06-26T09:05:57;29.50;99.90
20827;DHT22;10574;52.508;13.236;2023-06-26T09:08:24;29.50;99.90
20827;DHT22;10574;52.508;13.236;2023-06-26T09:10:52;29.60;99.50
20827;DHT22;10574;52.508;13.236;2023-06-26T09:13:20;29.80;98.80
20827;DHT22;10574;52.508;13.236;2023-06-26T09:15:49;29.80;95.80
20827;DHT22;10574;52.508;13.236;2023-06-26T09:18:18;29.80;96.50
20827;DHT22;10574;52.508;13.236;2023-06-26T09:20:46;29.80;96.70
20827;DHT22;10574;52.508;13.236;2023-06-26T09:23:14;29.80;96.50
20827;DHT22;10574;52.508;13.236;2023-06-26T09:25:41;29.80;97.50
20827;DHT22;10574;52.508;13.236;2023-06-26T09:28:11;29.80;94.20
20827;DHT22;10574;52.508;13.236;2023-06-26T09:30:39;29.90;97.90
20827;DHT22;10574;52.508;13.236;2023-06-26T09:33:17;30.00;95.60
20827;DHT22;10574;52.508;13.236;2023-06-26T09:35:46;29.90;92.50
20827;DHT22;10574;52.508;13.236;2023-06-26T09:38:14;29.80;92.60
20827;DHT22;10574;52.508;13.236;2023-06-26T09:40:44;29.60;93.20
20827;DHT22;10574;52.508;13.236;2023-06-26T09:43:13;29.70;94.00
20827;DHT22;10574;52.508;13.236;2023-06-26T09:45:41;29.60;93.80
20827;DHT22;10574;52.508;13.236;2023-06-26T09:48:08;29.50;93.00
20827;DHT22;10574;52.508;13.236;2023-06-26T09:50:36;29.50;94.20
20827;DHT22;10574;52.508;13.236;2023-06-26T09:53:09;29.50;96.00
20827;DHT22;10574;52.508;13.236;2023-06-26T09:55:37;29.80;92.60
20827;DHT22;10574;52.508;13.236;2023-06-26T09:58:04;29.70;94.90
20827;DHT22;10574;52.508;13.236;2023-06-26T10:00:33;29.80;93.10
20827;DHT22;10574;52.508;13.236;2023-06-26T10:03:01;29.70;93.60
20827;DHT22;10574;52.508;13.236;2023-06-26T10:05:28;29.80;95.00
20827;DHT22;10574;52.508;13.236;2023-06-26T10:07:56;30.00;94.10
20827;DHT22;10574;52.508;13.236;2023-06-26T10:10:25;30.00;93.00
20827;DHT22;10574;52.508;13.236;2023-06-26T10:12:57;30.10;93.60
20827;DHT22;10574;52.508;13.236;2023-06-26T10:15:24;30.20;93.20
20827;DHT22;10574;52.508;13.236;2023-06-26T10:17:55;30.20;91.80
20827;DHT22;10574;52.508;13.236;2023-06-26T10:20:24;30.40;92.60
20827;DHT22;10574;52.508;13.236;2023-06-26T10:22:55;30.30;92.30
20827;DHT22;10574;52.508;13.236;2023-06-26T10:25:24;30.30;92.90
20827;DHT22;10574;52.508;13.236;2023-06-26T10:27:58;30.30;91.40
20827;DHT22;10574;52.508;13.236;2023-06-26T10:30:31;30.10;90.90
20827;DHT22;10574;52.508;13.236;2023-06-26T10:33:00;30.20;92.30
20827;DHT22;10574;52.508;13.236;2023-06-26T10:35:30;30.30;90.90
20827;DHT22;10574;52.508;13.236;2023-06-26T10:38:02;30.50;90.50
20827;DHT22;10574;52.508;13.236;2023-06-26T10:40:44;30.40;92.90
20827;DHT22;10574;52.508;13.236;2023-06-26T10:43:13;30.60;90.20
20827;DHT22;10574;52.508;13.236;2023-06-26T10:45:46;30.50;91.80
20827;DHT22;10574;52.508;13.236;2023-06-26T10:48:16;30.40;90.30
20827;DHT22;10574;52.508;13.236;2023-06-26T10:50:46;30.60;91.80
20827;DHT22;10574;52.508;13.236;2023-06-26T10:53:15;30.60;92.80
20827;DHT22;10574;52.508;13.236;2023-06-26T10:56:05;30.50;91.30
20827;DHT22;10574;52.508;13.236;2023-06-26T11:03:59;30.50;88.40
20827;DHT22;10574;52.508;13.236;2023-06-26T11:06:21;30.80;87.90
20827;DHT22;10574;52.508;13.236;2023-06-26T11:08:50;30.90;86.50
20827;DHT22;10574;52.508;13.236;2023-06-26T11:11:54;31.20;90.50
20827;DHT22;10574;52.508;13.236;2023-06-26T11:13:49;31.40;85.60
20827;DHT22;10574;52.508;13.236;2023-06-26T11:16:17;31.30;86.00
20827;DHT22;10574;52.508;13.236;2023-06-26T11:18:45;31.20;87.50
20827;DHT22;10574;52.508;13.236;2023-06-26T11:21:13;31.20;86.70
20827;DHT22;10574;52.508;13.236;2023-06-26T11:23:41;31.30;85.90
20827;DHT22;10574;52.508;13.236;2023-06-26T11:26:19;31.30;85.90
20827;DHT22;10574;52.508;13.236;2023-06-26T11:28:52;31.40;85.70
20827;DHT22;10574;52.508;13.236;2023-06-26T11:31:26;31.50;82.60
20827;DHT22;10574;52.508;13.236;2023-06-26T11:33:54;31.70;86.40
20827;DHT22;10574;52.508;13.236;2023-06-26T11:36:27;31.90;80.10
20827;DHT22;10574;52.508;13.236;2023-06-26T11:38:59;31.70;79.70
20827;DHT22;10574;52.508;13.236;2023-06-26T11:41:34;31.60;80.00
20827;DHT22;10574;52.508;13.236;2023-06-26T11:44:05;31.70;82.00
20827;DHT22;10574;52.508;13.236;2023-06-26T11:46:34;31.80;81.50
20827;DHT22;10574;52.508;13.236;2023-06-26T11:49:06;31.80;84.50
20827;DHT22;10574;52.508;13.236;2023-06-26T11:51:34;32.00;81.50
20827;DHT22;10574;52.508;13.236;2023-06-26T11:54:03;32.00;80.70
20827;DHT22;10574;52.508;13.236;2023-06-26T11:56:31;32.00;80.10
20827;DHT22;10574;52.508;13.236;2023-06-26T11:59:06;32.20;82.90
20827;DHT22;10574;52.508;13.236;2023-06-26T12:01:40;32.30;80.80
20827;DHT22;10574;52.508;13.236;2023-06-26T12:04:09;32.20;81.20
20827;DHT22;10574;52.508;13.236;2023-06-26T12:06:39;32.00;78.10
20827;DHT22;10574;52.508;13.236;2023-06-26T12:09:09;32.00;78.00
20827;DHT22;10574;52.508;13.236;2023-06-26T12:11:41;32.20;78.80
20827;DHT22;10574;52.508;13.236;2023-06-26T12:14:10;32.20;79.70
20827;DHT22;10574;52.508;13.236;2023-06-26T12:16:38;32.20;80.30
20827;DHT22;10574;52.508;13.236;2023-06-26T12:19:08;32.10;80.50
20827;DHT22;10574;52.508;13.236;2023-06-26T12:24:15;32.50;79.90
20827;DHT22;10574;52.508;13.236;2023-06-26T12:26:44;32.40;80.50
20827;DHT22;10574;52.508;13.236;2023-06-26T12:29:14;32.60;78.80
20827;DHT22;10574;52.508;13.236;2023-06-26T12:31:43;32.50;84.10
20827;DHT22;10574;52.508;13.236;2023-06-26T12:34:13;32.20;77.20
20827;DHT22;10574;52.508;13.236;2023-06-26T12:42:21;32.50;81.10
20827;DHT22;10574;52.508;13.236;2023-06-26T12:44:45;32.50;79.40
20827;DHT22;10574;52.508;13.236;2023-06-26T12:47:18;32.60;78.00
20827;DHT22;10574;52.508;13.236;2023-06-26T12:49:49;32.80;79.40
20827;DHT22;10574;52.508;13.236;2023-06-26T12:52:18;32.80;76.80
20827;DHT22;10574;52.508;13.236;2023-06-26T12:54:47;32.60;80.40
20827;DHT22;10574;52.508;13.236;2023-06-26T12:57:16;32.50;80.20
20827;DHT22;10574;52.508;13.236;2023-06-26T12:59:43;32.50;79.70
20827;DHT22;10574;52.508;13.236;2023-06-26T13:02:11;32.20;81.50
20827;DHT22;10574;52.508;13.236;2023-06-26T13:04:40;31.70;81.30
20827;DHT22;10574;52.508;13.236;2023-06-26T13:07:10;31.50;83.20
20827;DHT22;10574;52.508;13.236;2023-06-26T13:09:38;31.20;84.00
20827;DHT22;10574;52.508;13.236;2023-06-26T13:12:07;31.10;84.80
20827;DHT22;10574;52.508;13.236;2023-06-26T13:14:35;30.90;84.90
20827;DHT22;10574;52.508;13.236;2023-06-26T13:17:03;30.90;86.30
20827;DHT22;10574;52.508;13.236;2023-06-26T13:19:31;30.80;87.90
20827;DHT22;10574;52.508;13.236;2023-06-26T13:21:59;30.80;83.10
20827;DHT22;10574;52.508;13.236;2023-06-26T13:24:26;30.50;83.80
20827;DHT22;10574;52.508;13.236;2023-06-26T13:26:54;30.40;86.80
20827;DHT22;10574;52.508;13.236;2023-06-26T13:29:22;30.30;88.10
20827;DHT22;10574;52.508;13.236;2023-06-26T13:31:49;30.20;90.10
20827;DHT22;10574;52.508;13.236;2023-06-26T13:34:22;30.10;88.20
20827;DHT22;10574;52.508;13.236;2023-06-26T13:36:54;30.10;91.60
20827;DHT22;10574;52.508;13.236;2023-06-26T13:39:21;29.90;92.50
20827;DHT22;10574;52.508;13.236;2023-06-26T13:41:49;29.90;91.40
20827;DHT22;10574;52.508;13.236;2023-06-26T13:44:17;29.90;90.60
20827;DHT22;10574;52.508;13.236;2023-06-26T13:46:44;29.90;90.60
20827;DHT22;10574;52.508;13.236;2023-06-26T13:49:12;29.90;91.10
20827;DHT22;10574;52.508;13.236;2023-06-26T13:51:40;29.80;92.50
20827;DHT22;10574;52.508;13.236;2023-06-26T13:54:09;29.80;92.80
20827;DHT22;10574;52.508;13.236;2023-06-26T13:56:37;29.80;91.50
20827;DHT22;10574;52.508;13.236;2023-06-26T13:59:07;29.70;91.50
20827;DHT22;10574;52.508;13.236;2023-06-26T14:01:45;29.80;92.00
20827;DHT22;10574;52.508;13.236;2023-06-26T14:04:15;29.60;93.70
20827;DHT22;10574;52.508;13.236;2023-06-26T14:06:47;29.10;94.00
20827;DHT22;10574;52.508;13.236;2023-06-26T14:09:17;28.10;96.00
20827;DHT22;10574;52.508;13.236;2023-06-26T14:11:45;27.30;99.90
20827;DHT22;10574;52.508;13.236;2023-06-26T14:14:13;26.40;99.90
20827;DHT22;10574;52.508;13.236;2023-06-26T14:16:41;25.10;99.90
20827;DHT22;10574;52.508;13.236;2023-06-26T15:57:07;20.00;99.90
20827;DHT22;10574;52.508;13.236;2023-06-26T15:59:36;19.90;99.90
20827;DHT22;10574;52.508;13.236;2023-06-26T16:05:19;20.30;99.90
20827;DHT22;10574;52.508;13.236;2023-06-26T16:07:47;20.40;99.90
20827;DHT22;10574;52.508;13.236;2023-06-26T16:10:15;20.40;99.90
20827;DHT22;10574;52.508;13.236;2023-06-26T16:12:42;20.50;99.90
20827;DHT22;10574;52.508;13.236;2023-06-26T16:15:10;20.60;99.90
20827;DHT22;10574;52.508;13.236;2023-06-26T16:17:38;20.60;99.90
20827;DHT22;10574;52.508;13.236;2023-06-26T16:20:06;20.50;99.90
20827;DHT22;10574;52.508;13.236;2023-06-26T16:22:34;20.60;99.90
20827;DHT22;10574;52.508;13.236;2023-06-26T16:25:02;20.60;99.90
20827;DHT22;10574;52.508;13.236;2023-06-26T16:27:30;20.60;99.90
20827;DHT22;10574;52.508;13.236;2023-06-26T16:29:57;20.60;99.90
20827;DHT22;10574;52.508;13.236;2023-06-26T16:32:26;20.60;99.90
20827;DHT22;10574;52.508;13.236;2023-06-26T16:34:53;20.60;99.90
20827;DHT22;10574;52.508;13.236;2023-06-26T16:37:21;20.60;99.90
20827;DHT22;10574;52.508;13.236;2023-06-26T16:39:49;20.60;99.90
20827;DHT22;10574;52.508;13.236;2023-06-26T16:42:16;20.60;99.90
20827;DHT22;10574;52.508;13.236;2023-06-26T16:44:46;20.60;99.90
20827;DHT22;10574;52.508;13.236;2023-06-26T16:47:13;20.60;99.90
20827;DHT22;10574;52.508;13.236;2023-06-26T16:49:46;20.60;99.90
20827;DHT22;10574;52.508;13.236;2023-06-26T16:52:14;20.60;99.90
20827;DHT22;10574;52.508;13.236;2023-06-26T16:54:42;20.70;99.90
20827;DHT22;10574;52.508;13.236;2023-06-26T16:57:09;20.70;99.90
20827;DHT22;10574;52.508;13.236;2023-06-26T16:59:37;20.80;99.90
20827;DHT22;10574;52.508;13.236;2023-06-26T17:02:05;20.80;99.90
20827;DHT22;10574;52.508;13.236;2023-06-26T17:04:33;20.80;99.90
20827;DHT22;10574;52.508;13.236;2023-06-26T17:07:01;20.90;99.90
20827;DHT22;10574;52.508;13.236;2023-06-26T17:09:28;21.00;99.90
20827;DHT22;10574;52.508;13.236;2023-06-26T17:11:56;21.10;99.90
20827;DHT22;10574;52.508;13.236;2023-06-26T17:14:24;21.10;99.90
20827;DHT22;10574;52.508;13.236;2023-06-26T17:16:52;21.20;99.90
20827;DHT22;10574;52.508;13.236;2023-06-26T17:19:20;21.30;99.90
20827;DHT22;10574;52.508;13.236;2023-06-26T17:21:47;21.30;99.90
20827;DHT22;10574;52.508;13.236;2023-06-26T17:24:15;21.30;99.90
20827;DHT22;10574;52.508;13.236;2023-06-26T17:26:43;21.40;99.90
20827;DHT22;10574;52.508;13.236;2023-06-26T17:29:11;21.40;99.90
20827;DHT22;10574;52.508;13.236;2023-06-26T17:31:39;21.30;99.90